createdAt,value
2019-02-28T00:01:47.506Z,10.97
2019-02-28T00:05:52.079Z,11.43
2019-02-28T00:09:57.331Z,12.37
2019-02-28T00:14:02.868Z,12.85
2019-02-28T00:18:07.401Z,12.43
2019-02-28T00:22:14.650Z,13.05
2019-02-28T00:26:18.233Z,14.18
2019-02-28T00:30:22.803Z,12.60
2019-02-28T00:34:27.368Z,12.53
2019-02-28T00:38:31.956Z,14.90
2019-02-28T00:42:36.906Z,17.30
2019-02-28T00:46:45.191Z,18.00
2019-02-28T00:50:47.730Z,18.57
2019-02-28T00:54:52.349Z,20.15
2019-02-28T00:58:57.017Z,21.23
2019-02-28T01:03:01.629Z,22.60
2019-02-28T01:07:06.197Z,22.93
2019-02-28T01:11:13.293Z,23.60
2019-02-28T01:15:17.151Z,23.85
2019-02-28T01:19:21.677Z,24.85
2019-02-28T01:23:29.394Z,26.95
2019-02-28T01:27:32.516Z,26.45
2019-02-28T01:31:37.118Z,27.55
2019-02-28T01:35:41.674Z,28.10
2019-02-28T01:39:46.237Z,27.02
2019-02-28T01:43:50.801Z,27.80
2019-02-28T01:47:55.387Z,29.63
2019-02-28T01:51:59.967Z,29.65
2019-02-28T01:56:04.554Z,30.17
2019-02-28T02:00:11.496Z,29.70
2019-02-28T02:04:16.175Z,31.82
2019-02-28T02:08:20.747Z,30.55
2019-02-28T02:12:25.352Z,32.80
2019-02-28T02:16:29.928Z,32.83
2019-02-28T02:20:34.496Z,32.08
2019-02-28T02:24:39.022Z,34.05
2019-02-28T02:36:54.197Z,27.23
2019-02-28T02:41:00.383Z,35.40
2019-02-28T02:45:05.000Z,35.35
2019-02-28T02:49:09.189Z,35.90
2019-02-28T02:53:13.847Z,37.08
2019-02-28T02:57:18.447Z,36.75
2019-02-28T03:01:23.410Z,35.53
2019-02-28T03:05:35.338Z,37.77
2019-02-28T03:09:35.228Z,38.55
2019-02-28T03:13:43.553Z,39.93
2019-02-28T03:17:47.131Z,39.00
2019-02-28T03:21:52.987Z,40.67
2019-02-28T03:26:05.747Z,38.95
2019-02-28T03:30:03.849Z,39.58
2019-02-28T03:34:13.253Z,41.43
2019-02-28T03:42:28.586Z,42.27
2019-02-28T03:46:30.150Z,41.92
2019-02-28T03:50:34.737Z,42.65
2019-02-28T03:54:39.294Z,42.80
2019-02-28T04:00:42.642Z,42.95
2019-02-28T04:05:41.701Z,42.50
2019-02-28T04:11:10.234Z,39.25
2019-02-28T04:15:14.962Z,36.38
2019-02-28T04:19:22.632Z,38.40
2019-02-28T04:23:25.774Z,38.47
2019-02-28T04:27:30.363Z,37.10
2019-02-28T04:31:34.864Z,38.55
2019-02-28T04:35:39.434Z,38.65
2019-02-28T04:39:44.011Z,38.70
2019-02-28T04:43:48.582Z,37.90
2019-02-28T04:47:53.167Z,38.05
2019-02-28T04:51:57.690Z,38.60
2019-02-28T05:00:10.588Z,38.73
2019-02-28T05:16:33.010Z,41.77
2019-02-28T05:20:37.552Z,43.70
2019-02-28T05:27:11.076Z,40.10
2019-02-28T05:31:15.672Z,38.28
2019-02-28T05:40:11.472Z,39.83
2019-02-28T05:44:16.065Z,39.88
2019-02-28T05:50:00.845Z,40.75
2019-02-28T06:00:02.926Z,45.30
2019-02-28T06:04:07.785Z,44.15
2019-02-28T06:08:12.316Z,41.02
2019-02-28T06:12:17.119Z,41.85
2019-02-28T06:16:21.685Z,43.50
2019-02-28T06:23:02.835Z,46.77
2019-02-28T06:27:07.616Z,46.77
2019-02-28T06:31:14.371Z,46.48
2019-02-28T06:36:14.649Z,47.88
2019-02-28T06:40:21.980Z,46.23
2019-02-28T06:44:27.026Z,49.33
2019-02-28T06:48:32.220Z,46.75
2019-02-28T06:55:38.402Z,48.63
2019-02-28T06:59:42.911Z,47.20
2019-02-28T07:03:53.436Z,48.02
2019-02-28T07:09:33.543Z,47.62
2019-02-28T07:13:39.826Z,46.18
2019-02-28T07:17:46.597Z,47.03
2019-02-28T07:21:50.252Z,46.98
2019-02-28T07:25:54.784Z,48.27
2019-02-28T07:29:59.395Z,45.70
2019-02-28T07:36:24.109Z,45.67
2019-02-28T07:44:21.194Z,46.15
2019-02-28T07:48:26.845Z,47.07
2019-02-28T07:52:32.408Z,46.35
2019-02-28T07:57:34.016Z,45.92
2019-02-28T08:01:38.592Z,46.37
2019-02-28T08:05:43.156Z,47.23
2019-02-28T08:09:47.739Z,48.00
2019-02-28T08:13:52.313Z,48.25
2019-02-28T08:18:53.719Z,48.83
2019-02-28T08:22:58.320Z,49.77
2019-02-28T08:27:03.353Z,49.25
2019-02-28T08:31:08.501Z,48.78
2019-02-28T08:35:13.546Z,50.17
2019-02-28T08:41:25.718Z,49.83
2019-02-28T08:45:32.730Z,49.43
2019-02-28T08:49:42.170Z,50.95
2019-02-28T08:53:41.817Z,50.05
2019-02-28T08:57:54.517Z,52.33
2019-02-28T09:01:52.594Z,40.70
2019-02-28T09:05:57.148Z,39.33
2019-02-28T09:10:01.710Z,40.40
2019-02-28T09:14:06.264Z,40.47
2019-02-28T09:18:10.851Z,40.73
2019-02-28T09:22:15.397Z,42.57
2019-02-28T09:26:19.943Z,40.30
2019-02-28T09:30:29.745Z,43.10
2019-02-28T09:34:33.545Z,41.83
2019-02-28T09:38:38.135Z,41.03
2019-02-28T09:42:44.523Z,40.27
2019-02-28T09:46:50.682Z,40.70
2019-02-28T09:50:58.259Z,40.87
2019-02-28T09:55:01.363Z,40.17
2019-02-28T09:59:05.916Z,38.67
2019-02-28T10:03:10.494Z,40.03
2019-02-28T10:07:15.060Z,40.13
2019-02-28T10:15:20.569Z,41.27
2019-02-28T10:19:25.163Z,38.80
2019-02-28T10:23:29.722Z,31.47
2019-02-28T10:31:39.280Z,38.73
2019-02-28T10:35:43.821Z,38.03
2019-02-28T10:39:48.412Z,34.97
2019-02-28T10:43:55.791Z,37.43
2019-02-28T10:48:02.893Z,35.97
2019-02-28T10:52:05.410Z,36.17
2019-02-28T10:56:09.924Z,38.10
2019-02-28T11:00:20.925Z,36.97
2019-02-28T11:04:25.591Z,40.33
2019-02-28T11:08:30.152Z,37.50
2019-02-28T11:12:34.988Z,36.43
2019-02-28T11:16:39.516Z,34.63
2019-02-28T11:20:44.334Z,36.03
2019-02-28T11:28:51.976Z,44.03
2019-02-28T11:32:56.661Z,46.53
2019-02-28T11:37:01.184Z,40.13
2019-02-28T11:41:05.859Z,37.43
2019-02-28T11:45:14.522Z,37.00
2019-02-28T11:49:19.078Z,36.33
2019-02-28T11:53:23.653Z,37.50
2019-02-28T12:00:39.452Z,35.70
2019-02-28T12:07:05.339Z,36.30
2019-02-28T12:11:09.934Z,37.83
2019-02-28T12:15:15.384Z,38.00
2019-02-28T12:19:19.955Z,37.70
2019-02-28T12:23:24.509Z,37.60
2019-02-28T12:27:29.040Z,36.93
2019-02-28T12:31:35.586Z,35.07
2019-02-28T12:35:40.667Z,36.07
2019-02-28T12:39:45.484Z,38.37
2019-02-28T12:43:50.049Z,33.97
2019-02-28T12:47:54.571Z,37.93
2019-02-28T12:51:59.105Z,36.80
2019-02-28T12:56:03.667Z,38.17
2019-02-28T13:00:19.848Z,37.40
2019-02-28T13:04:22.917Z,35.27
2019-02-28T13:08:27.425Z,34.47
2019-02-28T13:12:32.017Z,30.97
2019-02-28T13:16:36.573Z,32.10
2019-02-28T13:20:41.088Z,30.93
2019-02-28T13:24:46.398Z,31.63
2019-02-28T13:28:54.616Z,31.70
2019-02-28T13:32:58.173Z,29.77
2019-02-28T13:37:03.257Z,27.57
2019-02-28T13:41:08.001Z,29.97
2019-02-28T13:45:19.262Z,29.13
2019-02-28T13:49:20.212Z,29.67
2019-02-28T13:53:27.074Z,27.03
2019-02-28T13:57:30.976Z,28.63
2019-02-28T14:01:35.545Z,29.73
2019-02-28T14:05:41.574Z,29.83
2019-02-28T14:09:46.349Z,30.13
2019-02-28T14:13:50.949Z,30.30
2019-02-28T14:17:55.510Z,32.17
2019-02-28T14:22:00.061Z,29.67
2019-02-28T14:26:05.128Z,31.00
2019-02-28T14:30:11.640Z,30.53
2019-02-28T14:34:16.216Z,32.33
2019-02-28T14:38:20.771Z,31.57
2019-02-28T14:42:25.349Z,32.10
2019-02-28T14:46:29.904Z,31.03
2019-02-28T14:50:34.438Z,32.73
2019-02-28T14:54:38.999Z,32.30
2019-02-28T14:58:43.561Z,33.23
2019-02-28T15:02:48.219Z,35.37
2019-02-28T15:06:52.813Z,33.17
2019-02-28T15:10:57.379Z,33.80
2019-02-28T15:15:01.957Z,34.17
2019-02-28T15:19:06.519Z,33.90
2019-02-28T15:23:11.085Z,32.97
2019-02-28T15:27:15.802Z,33.90
2019-02-28T15:31:20.344Z,32.20
2019-02-28T15:35:24.943Z,34.33
2019-02-28T15:39:29.500Z,33.67
2019-02-28T15:43:34.129Z,34.27
2019-02-28T15:47:38.710Z,35.03
2019-02-28T15:51:43.309Z,34.80
2019-02-28T15:55:47.990Z,34.47
2019-02-28T15:59:52.542Z,36.93
2019-02-28T16:03:57.137Z,33.70
2019-02-28T16:08:01.656Z,36.03
2019-02-28T16:12:06.250Z,36.90
2019-02-28T16:16:10.838Z,35.13
2019-02-28T16:20:15.449Z,35.30
2019-02-28T16:24:20.030Z,35.83
2019-02-28T16:28:24.597Z,33.57
2019-02-28T16:32:29.999Z,33.93
2019-02-28T16:36:34.793Z,34.00
2019-02-28T16:40:39.362Z,32.97
2019-02-28T16:44:43.931Z,33.53
2019-02-28T16:48:48.462Z,36.13
2019-02-28T16:52:53.044Z,34.57
2019-02-28T16:56:57.603Z,32.80
2019-02-28T17:01:02.157Z,35.13
2019-02-28T17:07:17.667Z,32.73
2019-02-28T17:11:22.268Z,34.93
2019-02-28T17:15:33.829Z,34.57
2019-02-28T17:19:38.345Z,34.70
2019-02-28T17:23:42.919Z,33.60
2019-02-28T17:27:55.933Z,35.30
2019-02-28T17:32:00.552Z,35.40
2019-02-28T17:36:08.328Z,35.10
2019-02-28T17:40:12.689Z,33.37
2019-02-28T17:44:59.934Z,34.60
2019-02-28T17:49:41.822Z,36.27
2019-02-28T17:54:36.345Z,33.43
2019-02-28T17:59:14.911Z,36.37
2019-02-28T18:03:45.075Z,37.77
2019-02-28T18:08:36.728Z,35.93
2019-02-28T18:13:03.155Z,37.77
2019-02-28T18:18:05.378Z,34.90
2019-02-28T18:22:30.309Z,33.07
2019-02-28T18:27:11.749Z,35.33
2019-02-28T18:31:19.174Z,35.00
2019-02-28T18:35:23.509Z,37.10
2019-02-28T18:39:28.131Z,35.53
2019-02-28T18:43:32.699Z,36.97
2019-02-28T18:47:39.672Z,34.97
2019-02-28T18:51:43.521Z,37.00
2019-02-28T18:55:48.093Z,37.30
2019-02-28T18:59:52.645Z,35.67
2019-02-28T19:03:57.193Z,36.10
2019-02-28T19:08:01.878Z,37.57
2019-02-28T19:12:06.591Z,40.70
2019-02-28T19:16:11.146Z,37.50
2019-02-28T19:20:15.709Z,45.73
2019-02-28T19:24:20.249Z,56.53
2019-02-28T19:28:24.819Z,53.97
2019-02-28T19:32:29.360Z,48.77
2019-02-28T19:36:33.927Z,34.80
2019-02-28T19:40:38.519Z,34.60
2019-02-28T19:44:43.029Z,34.33
2019-02-28T19:48:47.593Z,26.73
2019-02-28T19:52:54.018Z,31.27
2019-02-28T19:56:58.378Z,31.23
2019-02-28T20:01:02.907Z,29.77
2019-02-28T20:05:07.692Z,32.57
2019-02-28T20:09:12.357Z,29.73
2019-02-28T20:13:17.072Z,31.17
2019-02-28T20:17:21.650Z,30.37
2019-02-28T20:21:26.206Z,29.53
2019-02-28T20:25:30.893Z,30.80
2019-02-28T20:29:35.471Z,28.43
2019-02-28T20:33:40.036Z,30.13
2019-02-28T20:37:44.606Z,29.87
2019-02-28T20:41:49.139Z,31.80
2019-02-28T20:45:53.729Z,29.80
2019-02-28T20:49:58.304Z,31.23
2019-02-28T20:54:02.864Z,31.67
2019-02-28T20:58:07.444Z,33.07
2019-02-28T21:02:11.984Z,32.47
2019-02-28T21:06:16.546Z,31.47
2019-02-28T21:10:21.204Z,31.73
2019-02-28T21:14:25.905Z,32.23
2019-02-28T21:18:30.460Z,32.37
2019-02-28T21:22:35.011Z,31.73
2019-02-28T21:26:39.569Z,35.40
2019-02-28T21:30:44.163Z,32.73
2019-02-28T21:34:48.750Z,33.47
2019-02-28T21:38:53.324Z,33.63
2019-02-28T21:42:57.860Z,33.60
2019-02-28T21:47:02.441Z,35.03
2019-02-28T21:51:07.090Z,33.97
2019-02-28T21:55:12.649Z,33.83
2019-02-28T21:59:17.213Z,33.43
2019-02-28T22:03:21.733Z,33.77
2019-02-28T22:07:26.311Z,34.17
2019-02-28T22:11:30.903Z,31.77
2019-02-28T22:15:35.471Z,31.87
2019-02-28T22:19:40.026Z,30.90
2019-02-28T22:23:44.655Z,31.93
2019-02-28T22:27:49.213Z,31.00
2019-02-28T22:32:02.895Z,33.23
2019-02-28T22:36:08.747Z,34.77
2019-02-28T22:40:13.301Z,37.00
2019-02-28T22:44:17.825Z,36.97
2019-02-28T22:48:22.383Z,37.93
2019-02-28T22:52:26.952Z,34.63
2019-02-28T22:56:31.516Z,38.07
2019-02-28T23:00:59.237Z,36.80
2019-02-28T23:05:03.768Z,34.07
2019-02-28T23:09:08.845Z,32.10
2019-02-28T23:13:13.532Z,30.23
2019-02-28T23:17:18.114Z,30.47
2019-02-28T23:21:22.685Z,31.27
2019-02-28T23:25:27.221Z,29.60
2019-02-28T23:29:31.789Z,30.33
2019-02-28T23:33:36.381Z,28.33
2019-02-28T23:37:40.941Z,27.83
2019-02-28T23:41:45.500Z,28.77
2019-02-28T23:45:50.028Z,28.37
2019-02-28T23:49:54.594Z,27.20
2019-02-28T23:53:59.165Z,25.77
2019-02-28T23:58:03.737Z,26.10
